createdAt,value
2023-04-18T00:02:36.000Z,49.37
2023-04-18T00:07:35.000Z,49.34
2023-04-18T00:12:36.000Z,48.43
2023-04-18T00:17:35.000Z,48.85
2023-04-18T00:22:36.000Z,49.17
2023-04-18T00:27:35.000Z,49.86
2023-04-18T00:32:35.000Z,50.27
2023-04-18T00:37:35.000Z,50.84
2023-04-18T00:42:36.000Z,50.64
2023-04-18T00:47:35.000Z,50.64
2023-04-18T00:52:35.000Z,51.99
2023-04-18T00:57:36.000Z,51.99
2023-04-18T01:02:36.000Z,52.87
2023-04-18T01:07:36.000Z,54.35
2023-04-18T01:12:35.000Z,55.83
2023-04-18T01:17:35.000Z,57.07
2023-04-18T01:22:35.000Z,55.68
2023-04-18T01:27:36.000Z,55.75
2023-04-18T01:32:35.000Z,55.17
2023-04-18T01:37:35.000Z,55.21
2023-04-18T01:42:35.000Z,54.82
2023-04-18T01:47:35.000Z,56.59
2023-04-18T01:52:35.000Z,58.81
2023-04-18T01:57:35.000Z,61.37
2023-04-18T02:02:35.000Z,62.86
2023-04-18T02:07:36.000Z,62.86
2023-04-18T02:12:36.000Z,63.58
2023-04-18T02:17:36.000Z,66.52
2023-04-18T02:22:35.000Z,73.04
2023-04-18T02:27:35.000Z,74.86
2023-04-18T02:32:36.000Z,77.68
2023-04-18T02:37:36.000Z,77.13
2023-04-18T02:42:36.000Z,76.48
2023-04-18T02:47:36.000Z,78.64
2023-04-18T02:52:35.000Z,80.91
2023-04-18T02:57:35.000Z,81.08
2023-04-18T03:02:36.000Z,80.58
2023-04-18T03:07:35.000Z,79.09
2023-04-18T03:12:36.000Z,79.09
2023-04-18T03:17:36.000Z,81.58
2023-04-18T03:22:35.000Z,94.27
2023-04-18T03:27:35.000Z,99.68
2023-04-18T03:32:36.000Z,96.77
2023-04-18T03:37:36.000Z,87.9
2023-04-18T03:42:35.000Z,85.15
2023-04-18T03:47:35.000Z,80.71
2023-04-18T03:52:39.000Z,76.27
2023-04-18T03:57:36.000Z,76.7
2023-04-18T04:02:36.000Z,74.32
2023-04-18T04:07:36.000Z,73.65
2023-04-18T04:12:36.000Z,75.07
2023-04-18T04:17:35.000Z,65.64
2023-04-18T04:22:35.000Z,61.05
2023-04-18T04:27:36.000Z,61.05
2023-04-18T04:32:35.000Z,56.94
2023-04-18T04:37:36.000Z,57.9
2023-04-18T04:42:35.000Z,60.23
2023-04-18T04:47:35.000Z,60.8
2023-04-18T04:52:35.000Z,60.91
2023-04-18T04:57:35.000Z,57.28
2023-04-18T05:02:36.000Z,55.41
2023-04-18T05:07:35.000Z,53.47
2023-04-18T05:12:35.000Z,53.59
2023-04-18T05:17:35.000Z,53.04
2023-04-18T05:22:35.000Z,52.44
2023-04-18T05:27:36.000Z,50.39
2023-04-18T05:32:35.000Z,49.09
2023-04-18T05:37:35.000Z,49.09
2023-04-18T05:42:36.000Z,47.49
2023-04-18T05:47:35.000Z,47.42
2023-04-18T05:52:36.000Z,47.87
2023-04-18T05:57:35.000Z,48.74
2023-04-18T06:02:36.000Z,49.02
2023-04-18T06:07:36.000Z,49.26
2023-04-18T06:12:35.000Z,48.97
2023-04-18T06:17:35.000Z,48.32
2023-04-18T06:22:36.000Z,47.49
2023-04-18T06:27:42.000Z,45.56
2023-04-18T06:32:36.000Z,43.85
2023-04-18T06:37:35.000Z,40.97
2023-04-18T06:42:36.000Z,37.88
2023-04-18T06:47:35.000Z,37.88
2023-04-18T06:52:35.000Z,33.01
2023-04-18T06:57:35.000Z,27.94
2023-04-18T07:02:35.000Z,25.07
2023-04-18T07:07:36.000Z,21.92
2023-04-18T07:12:35.000Z,19.67
2023-04-18T07:17:35.000Z,19.19
2023-04-18T07:22:35.000Z,18.5
2023-04-18T07:27:36.000Z,17.21
2023-04-18T07:32:35.000Z,16.97
2023-04-18T07:37:35.000Z,15.45
2023-04-18T07:42:35.000Z,14.75
2023-04-18T07:47:39.000Z,15.26
2023-04-18T07:52:35.000Z,14.42
2023-04-18T07:57:35.000Z,14.42
2023-04-18T08:02:35.000Z,13.84
2023-04-18T08:07:36.000Z,13.96
2023-04-18T08:12:36.000Z,14.63
2023-04-18T08:17:35.000Z,15.57
2023-04-18T08:22:35.000Z,15.27
2023-04-18T08:27:36.000Z,16.44
2023-04-18T08:32:36.000Z,15.24
2023-04-18T08:37:36.000Z,15.24
2023-04-18T08:42:35.000Z,15.95
2023-04-18T08:47:36.000Z,15.39
2023-04-18T08:52:35.000Z,16.16
2023-04-18T08:57:36.000Z,20.31
2023-04-18T09:02:35.000Z,20.36
2023-04-18T09:07:36.000Z,21.44
2023-04-18T09:12:35.000Z,21.44
2023-04-18T09:17:36.000Z,23.08
2023-04-18T09:22:35.000Z,24.95
2023-04-18T09:27:36.000Z,26.57
2023-04-18T09:32:36.000Z,26.71
2023-04-18T09:37:36.000Z,27.4
2023-04-18T09:42:38.000Z,28.03
2023-04-18T09:47:36.000Z,28.91
2023-04-18T09:52:36.000Z,29.15
2023-04-18T09:57:36.000Z,29.66
2023-04-18T10:02:35.000Z,29.75
2023-04-18T10:07:35.000Z,30.3
2023-04-18T10:12:36.000Z,30.64
2023-04-18T10:17:37.000Z,31.83
2023-04-18T10:22:36.000Z,31.49
2023-04-18T10:27:35.000Z,31.49
2023-04-18T10:32:35.000Z,32.06
2023-04-18T10:37:36.000Z,32.35
2023-04-18T10:42:36.000Z,31.97
2023-04-18T10:47:35.000Z,32.21
2023-04-18T10:52:35.000Z,32.57
2023-04-18T10:57:36.000Z,33.19
2023-04-18T11:02:36.000Z,33.89
2023-04-18T11:07:38.000Z,34.1
2023-04-18T11:12:36.000Z,33.72
2023-04-18T11:17:36.000Z,33.97
2023-04-18T11:22:35.000Z,34.25
2023-04-18T11:27:36.000Z,34.36
2023-04-18T11:32:36.000Z,34.36
2023-04-18T11:37:36.000Z,34.9
2023-04-18T11:42:35.000Z,34.86
2023-04-18T11:47:35.000Z,35.15
2023-04-18T11:52:36.000Z,35.05
2023-04-18T11:57:36.000Z,34.92
2023-04-18T12:02:36.000Z,35.29
2023-04-18T12:07:35.000Z,35.46
2023-04-18T12:12:36.000Z,35.47
2023-04-18T12:17:36.000Z,35.77
2023-04-18T12:22:35.000Z,35.09
2023-04-18T12:27:36.000Z,35.33
2023-04-18T12:32:35.000Z,35.61
2023-04-18T12:37:35.000Z,36.02
2023-04-18T12:42:36.000Z,36.44
2023-04-18T12:47:35.000Z,36.44
2023-04-18T12:52:35.000Z,36.49
2023-04-18T12:57:36.000Z,36.34
2023-04-18T13:02:36.000Z,35.68
2023-04-18T13:07:36.000Z,35.85
2023-04-18T13:12:36.000Z,35.82
2023-04-18T13:17:35.000Z,36.18
2023-04-18T13:22:35.000Z,36.35
2023-04-18T13:27:35.000Z,36.96
2023-04-18T13:32:35.000Z,36.46
2023-04-18T13:37:35.000Z,37.8
2023-04-18T13:42:36.000Z,38.78
2023-04-18T13:47:36.000Z,39.06
2023-04-18T13:52:36.000Z,39.07
2023-04-18T13:57:36.000Z,39.54
2023-04-18T14:02:35.000Z,39.54
2023-04-18T14:07:36.000Z,39.9
2023-04-18T14:12:35.000Z,39.86
2023-04-18T14:17:35.000Z,39.34
2023-04-18T14:22:36.000Z,39.8
2023-04-18T14:27:36.000Z,39.63
2023-04-18T14:32:35.000Z,39.31
2023-04-18T14:37:35.000Z,38.87
2023-04-18T14:42:36.000Z,38.36
2023-04-18T14:47:35.000Z,38.3
2023-04-18T14:52:36.000Z,38.65
2023-04-18T14:57:36.000Z,39.19
2023-04-18T15:02:36.000Z,39.52
2023-04-18T15:07:35.000Z,39.52
2023-04-18T15:12:35.000Z,39.58
2023-04-18T15:17:36.000Z,39.69
2023-04-18T15:22:35.000Z,40.07
2023-04-18T15:27:36.000Z,40.86
2023-04-18T15:32:36.000Z,40.73
2023-04-18T15:37:36.000Z,41.21
2023-04-18T15:42:35.000Z,41.54
2023-04-18T15:47:36.000Z,42
2023-04-18T15:52:35.000Z,42.34
2023-04-18T15:57:35.000Z,42.46
2023-04-18T16:02:35.000Z,43.11
2023-04-18T16:07:35.000Z,43.81
2023-04-18T16:12:36.000Z,44.47
2023-04-18T16:17:35.000Z,45.03
2023-04-18T16:22:35.000Z,45.03
2023-04-18T16:27:36.000Z,45.48
2023-04-18T16:32:36.000Z,46.02
2023-04-18T16:37:35.000Z,46.89
2023-04-18T16:42:36.000Z,47.6
2023-04-18T16:47:36.000Z,48.38
2023-04-18T16:52:36.000Z,49.07
2023-04-18T16:57:36.000Z,49.88
2023-04-18T17:02:36.000Z,50.38
2023-04-18T17:07:36.000Z,51.27
2023-04-18T17:12:36.000Z,52.29
2023-04-18T17:17:41.000Z,53.17
2023-04-18T17:22:36.000Z,54.1
2023-04-18T17:27:36.000Z,54.95
2023-04-18T17:32:35.000Z,55.63
2023-04-18T17:37:35.000Z,55.63
2023-04-18T17:42:35.000Z,56.04
2023-04-18T17:47:35.000Z,56.67
2023-04-18T17:52:36.000Z,57.18
2023-04-18T17:57:36.000Z,55.95
2023-04-18T18:02:35.000Z,55.4
2023-04-18T18:07:35.000Z,55.54
2023-04-18T18:12:35.000Z,55.75
2023-04-18T18:17:35.000Z,55.84
2023-04-18T18:22:36.000Z,55.84
2023-04-18T18:27:36.000Z,55.87
2023-04-18T18:32:35.000Z,55.36
2023-04-18T18:37:36.000Z,55.43
2023-04-18T18:42:35.000Z,55.32
2023-04-18T18:47:36.000Z,55.32
2023-04-18T18:52:35.000Z,58.26
2023-04-18T18:57:36.000Z,58.84
2023-04-18T19:02:35.000Z,57.85
2023-04-18T19:07:35.000Z,57.5
2023-04-18T19:12:36.000Z,57.95
2023-04-18T19:17:41.000Z,64.23
2023-04-18T19:22:36.000Z,57.91
2023-04-18T19:27:36.000Z,59.07
2023-04-18T19:32:35.000Z,61.11
2023-04-18T19:37:35.000Z,59.07
2023-04-18T19:42:35.000Z,60.97
2023-04-18T19:47:35.000Z,59.55
2023-04-18T19:52:35.000Z,58.49
2023-04-18T19:57:36.000Z,58.49
2023-04-18T20:02:35.000Z,65.43
2023-04-18T20:07:36.000Z,70.24
2023-04-18T20:12:35.000Z,76.66
2023-04-18T20:17:36.000Z,80.11
2023-04-18T20:22:35.000Z,66.02
2023-04-18T20:27:35.000Z,60.52
2023-04-18T20:32:36.000Z,58.39
2023-04-18T20:37:35.000Z,56.27
2023-04-18T20:42:36.000Z,54.3
2023-04-18T20:47:35.000Z,53.21
2023-04-18T20:52:36.000Z,51.84
2023-04-18T20:57:35.000Z,51.02
2023-04-18T21:02:36.000Z,50.39
2023-04-18T21:07:36.000Z,50.7
2023-04-18T21:12:35.000Z,50.7
2023-04-18T21:17:36.000Z,50.83
2023-04-18T21:22:35.000Z,50.98
2023-04-18T21:27:35.000Z,51.35
2023-04-18T21:32:36.000Z,51.4
2023-04-18T21:37:36.000Z,51.24
2023-04-18T21:42:35.000Z,50.82
2023-04-18T21:47:36.000Z,50.55
2023-04-18T21:52:36.000Z,50.24
2023-04-18T21:57:35.000Z,50.25
2023-04-18T22:02:36.000Z,49.92
2023-04-18T22:07:35.000Z,49.84
2023-04-18T22:12:35.000Z,49.81
2023-04-18T22:17:35.000Z,49.78
2023-04-18T22:22:35.000Z,49.88
2023-04-18T22:27:35.000Z,49.88
2023-04-18T22:32:36.000Z,49.7
2023-04-18T22:37:35.000Z,49.33
2023-04-18T22:42:36.000Z,49.05
2023-04-18T22:47:35.000Z,49.4
2023-04-18T22:52:35.000Z,49.73
2023-04-18T22:57:36.000Z,49.47
2023-04-18T23:02:36.000Z,49
2023-04-18T23:07:35.000Z,48.97
2023-04-18T23:12:36.000Z,48.9
2023-04-18T23:17:36.000Z,49.03
2023-04-18T23:22:36.000Z,48.85
2023-04-18T23:27:35.000Z,48.33
2023-04-18T23:32:36.000Z,48.33
2023-04-18T23:37:35.000Z,47.94
2023-04-18T23:42:36.000Z,47.8
2023-04-18T23:47:36.000Z,47.76
2023-04-18T23:52:35.000Z,47.82
2023-04-18T23:57:35.000Z,47.7
